Friday, November 17, 2017, 4:24 PM EST
Back to Local

KLOM, Philadelphia, Wings Field Airport

Location: Blue Bell, PA, United States Lat: 40.138
Local Time: 4:24 PM EST (21:24 GMT) Lon: -75.265
Time Zone: US/Eastern Elev: 301 ft

Show me the last for .
Show Coded

Time T Td Feel RH Dir Speed Gust Alt SLP Vis Weather Sky Remarks
2017-11-17 16:15 45 23 - 42 - Calm - 30.12 - 10 CLR None
2017-11-17 15:35 46 23 44 39 300° 6 - 30.11 - 10 CLR None
2017-11-17 15:15 46 23 40 39 280° 5 16 30.11 - 10 CLR None
2017-11-17 14:55 46 23 40 39 320° 10 16 30.11 - 10 CLR None
2017-11-17 14:35 46 23 39 39 330° 9 20 30.11 - 10 CLR None
2017-11-17 14:15 46 23 40 39 320° 8 16 30.11 - 10 CLR None
2017-11-17 13:55 46 23 43 39 320° 7 - 30.11 - 10 CLR None
2017-11-17 13:35 46 23 40 39 290° 5 16 30.12 - 10 CLR None
2017-11-17 13:15 46 23 39 39 320° 9 18 30.12 - 10 CLR None
2017-11-17 12:55 46 25 39 42 300° 10 18 30.13 - 10 CLR None
2017-11-17 12:35 45 25 37 45 290° 10 17 30.13 - 10 CLR None
2017-11-17 12:15 45 27 37 48 290° 10 16 30.14 - 10 CLR None
2017-11-17 11:55 45 27 37 48 290° 8 16 30.14 - 10 CLR None
2017-11-17 11:35 45 27 37 48 300° 15 18 30.15 - 10 CLR None
2017-11-17 11:15 43 27 37 52 300° 10 - 30.16 - 10 CLR None
2017-11-17 10:55 43 27 35 52 310° 9 16 30.15 - 10 CLR None
2017-11-17 10:35 43 27 37 52 300° 10 - 30.16 - 10 CLR None
2017-11-17 10:15 43 27 39 52 290° 6 - 30.16 - 10 CLR None
2017-11-17 09:55 41 27 32 56 320° 6 20 30.17 - 10 CLR None
2017-11-17 09:35 41 27 32 56 300° 8 17 30.17 - 10 SCT040 None
2017-11-17 09:15 41 27 32 56 300° 8 18 30.17 - 10 SCT040 None
2017-11-17 08:55 41 27 32 56 310° 7 18 30.16 - 10 CLR None
2017-11-17 08:35 39 27 34 60 290° 7 - 30.15 - 10 CLR None
2017-11-17 08:15 39 27 34 60 310° 8 - 30.14 - 10 SCT041 None
2017-11-17 07:55 39 27 34 60 320° 7 - 30.15 - 10 CLR None
2017-11-17 07:35 37 27 28 64 310° 9 16 30.14 - 10 CLR None
2017-11-17 07:15 37 27 33 64 320° 6 - 30.14 - 10 CLR None
2017-11-17 06:55 37 28 35 69 310° 3 - 30.12 - 10 SCT039 None
2017-11-17 06:35 37 28 - 69 - Calm - 30.10 - 10 SCT039 None
2017-11-17 06:15 37 28 - 69 - Calm - 30.09 - 10 SCT039 None
2017-11-17 05:55 37 28 35 69 300° 3 - 30.08 - 10 BKN041 None
2017-11-17 05:35 37 30 35 74 300° 3 - 30.08 - 10 BKN041 None
2017-11-17 05:15 39 30 37 69 290° 3 - 30.07 - 10 BKN043 None
2017-11-17 04:55 39 30 37 69 280° 3 - 30.06 - 10 SCT043 None
2017-11-17 04:35 41 30 38 65 310° 5 - 30.05 - 10 SCT043 None
2017-11-17 04:15 41 30 36 65 290° 7 - 30.05 - 10 BKN043 None
2017-11-17 03:55 41 30 32 65 300° 10 17 30.04 - 10 SCT041 None
2017-11-17 03:35 41 28 32 60 290° 7 20 30.04 - 10 SCT042 None
2017-11-17 03:15 41 28 31 60 320° 10 24 30.04 - 10 SCT046 None
2017-11-17 02:55 41 30 37 65 280° 6 - 30.03 - 10 OVC048 None
2017-11-17 02:35 41 30 36 65 300° 7 - 30.03 - 10 OVC050 None
2017-11-17 02:15 43 30 40 60 280° 5 - 30.03 - 10 OVC050 None
2017-11-17 01:55 41 30 36 65 280° 7 - 30.01 - 10 BKN048 None
2017-11-17 01:35 41 32 35 70 290° 10 - 30.00 - 10 SCT046 None
2017-11-17 01:15 41 32 36 70 300° 8 - 29.99 - 10 CLR None
2017-11-17 00:55 41 32 33 70 300° 7 16 29.99 - 10 CLR None
2017-11-17 00:35 41 32 37 70 280° 6 - 29.99 - 10 SCT060 None
2017-11-17 00:15 41 32 33 70 270° 8 16 30.00 - 10 BKN060 None
2017-11-16 23:55 41 32 37 70 260° 6 - 30.00 - 10 SCT060 None
2017-11-16 23:35 41 32 39 70 270° 3 - 29.99 - 10 SCT060 None
2017-11-16 23:15 41 32 38 70 280° 5 - 29.99 - 10 CLR None
2017-11-16 22:55 41 32 38 70 280° 5 - 29.98 - 10 CLR None
2017-11-16 22:35 41 32 - 70 - Calm - 29.98 - 10 CLR None
2017-11-16 22:15 41 32 36 70 280° 7 - 29.98 - 10 CLR None
2017-11-16 21:55 43 32 35 65 280° 9 17 29.98 - 10 SCT039 None
2017-11-16 21:35 41 32 36 70 290° 8 - 29.99 - 10 CLR None
2017-11-16 21:15 43 32 35 65 280° 7 16 29.98 - 10 CLR None
2017-11-16 20:55 43 32 35 65 280° 9 16 29.98 - 10 CLR None
2017-11-16 20:35 43 32 34 65 290° 9 20 29.97 - 10 CLR None
2017-11-16 20:10 43 32 35 65 280° 12 18 29.96 - 10 CLR None
2017-11-16 19:55 43 32 34 65 270° 8 20 29.96 - 10 CLR None
2017-11-16 19:35 45 32 37 61 270° 12 20 29.96 - 10 CLR None
2017-11-16 19:15 45 32 35 61 270° 8 25 29.96 - 10 CLR None
2017-11-16 18:55 45 32 37 61 280° 8 16 29.95 - 10 CLR None
2017-11-16 18:35 45 32 36 61 300° 5 22 29.95 - 10 CLR None
2017-11-16 18:15 46 32 39 56 280° 10 20 29.94 - 10 SCT049 SCT075 None
2017-11-16 17:55 46 32 39 56 270° 8 17 29.93 - 10 SCT060 BKN075 None
2017-11-16 17:35 48 32 41 53 290° 13 23 29.93 - 10 OVC060 None
2017-11-16 17:15 48 32 41 53 280° 7 23 29.92 - 10 SCT070 OVC075 None
2017-11-16 16:55 48 32 41 53 290° 13 21 29.91 - 10 BKN065 None
2017-11-16 16:35 48 32 45 53 290° 8 - 29.90 - 10 SCT065 None

Support USWX by starting your Amazon purchase here.